Time;durP1;ratioP1;P1;durP2;ratioP2;P2;SDS_P1;SDS_P2;PMS_P1;PMS_P2;Temp;Humidity;BMP_temperature;BMP_pressure;BME280_temperature;BME280_humidity;BME280_pressure;Samples;Min_cycle;Max_cycle;Signal;HPM_P1;HPM_P2
2024/02/16 00:02:24;;;;;;;10.13;3.17;;;;;;;;;;5073819;28;20282;-38
2024/02/16 00:04:49;;;;;;;7.60;3.03;;;;;;;;;;5073310;28;20265;-38
2024/02/16 00:07:15;;;;;;;5.00;2.67;;;;;;;;;;5073395;28;20372;-38
2024/02/16 00:09:40;;;;;;;5.78;2.90;;;;;;;;;;5073611;28;20255;-38
2024/02/16 00:12:06;;;;;;;9.77;3.57;;;;;;;;;;5073232;28;20040;-38
2024/02/16 00:14:31;;;;;;;5.68;2.55;;;;;;;;;;5073537;28;20028;-38
2024/02/16 00:16:56;;;;;;;5.97;2.70;;;;;;;;;;5073217;28;20021;-38
2024/02/16 00:19:22;;;;;;;12.97;2.90;;;;;;;;;;5073469;28;20020;-39
2024/02/16 00:21:47;;;;;;;10.38;3.20;;;;;;;;;;5073475;28;20680;-38
2024/02/16 00:24:12;;;;;;;7.20;2.70;;;;;;;;;;5071807;28;20056;-38
2024/02/16 00:26:39;;;;;;;7.47;2.90;;;;;;;;;;5073336;28;20270;-39
2024/02/16 00:29:04;;;;;;;4.63;2.80;;;;;;;;;;5073387;28;20409;-38
2024/02/16 00:31:30;;;;;;;5.70;3.00;;;;;;;;;;5073406;28;20066;-38
2024/02/16 00:33:55;;;;;;;7.47;3.20;;;;;;;;;;5073087;28;20023;-38
2024/02/16 00:36:20;;;;;;;5.83;2.83;;;;;;;;;;5073007;28;20372;-38
2024/02/16 00:38:46;;;;;;;6.67;2.70;;;;;;;;;;5073552;28;20099;-38
2024/02/16 00:41:21;;;;;;;5.85;2.97;;;;;;;;;;5073194;28;20350;-38
2024/02/16 00:43:47;;;;;;;5.28;2.90;;;;;;;;;;5073421;28;20016;-38
2024/02/16 00:46:12;;;;;;;5.82;3.33;;;;;;;;;;5072941;28;20013;-38
2024/02/16 00:48:37;;;;;;;10.70;3.00;;;;;;;;;;5072914;28;20456;-38
2024/02/16 00:51:03;;;;;;;6.60;2.90;;;;;;;;;;5073433;28;20141;-38
2024/02/16 00:53:28;;;;;;;7.93;3.00;;;;;;;;;;5072833;28;20251;-38
2024/02/16 00:55:53;;;;;;;8.10;3.57;;;;;;;;;;5073172;28;20021;-38
2024/02/16 00:58:19;;;;;;;8.63;4.27;;;;;;;;;;5073090;28;20329;-38
2024/02/16 01:00:44;;;;;;;9.77;4.15;;;;;;;;;;5073027;28;20257;-38
2024/02/16 01:03:10;;;;;;;7.63;3.40;;;;;;;;;;5072999;28;20020;-39
2024/02/16 01:05:35;;;;;;;7.37;3.30;;;;;;;;;;5073283;28;20013;-38
2024/02/16 01:08:00;;;;;;;7.00;3.00;;;;;;;;;;5072616;28;20294;-38
2024/02/16 01:10:25;;;;;;;8.77;2.97;;;;;;;;;;5073050;28;20020;-38
2024/02/16 01:12:52;;;;;;;4.83;2.67;;;;;;;;;;5076456;28;20029;-38
2024/02/16 01:15:17;;;;;;;6.22;2.53;;;;;;;;;;5075099;28;20603;-38
2024/02/16 01:17:42;;;;;;;5.10;2.83;;;;;;;;;;5076246;28;20027;-38
2024/02/16 01:20:10;;;;;;;5.87;2.80;;;;;;;;;;5076265;28;20055;-38
2024/02/16 01:22:35;;;;;;;7.70;2.78;;;;;;;;;;5076423;28;20668;-38
2024/02/16 01:25:00;;;;;;;5.67;2.80;;;;;;;;;;5076167;28;20247;-38
2024/02/16 01:27:27;;;;;;;6.13;3.00;;;;;;;;;;5076220;28;20265;-38
2024/02/16 01:29:52;;;;;;;6.40;3.00;;;;;;;;;;5076388;28;20405;-38
2024/02/16 01:32:18;;;;;;;6.37;2.83;;;;;;;;;;5076036;28;20056;-38
2024/02/16 01:34:46;;;;;;;6.90;3.08;;;;;;;;;;5077081;28;20269;-38
2024/02/16 01:37:11;;;;;;;7.60;2.83;;;;;;;;;;5074747;28;20115;-38
2024/02/16 01:39:37;;;;;;;6.63;2.85;;;;;;;;;;5075974;28;20100;-38
2024/02/16 01:42:02;;;;;;;10.00;3.77;;;;;;;;;;5075818;28;20028;-38
2024/02/16 01:44:27;;;;;;;6.75;3.35;;;;;;;;;;5075884;28;20262;-39
2024/02/16 01:46:52;;;;;;;9.82;3.03;;;;;;;;;;5075785;28;20044;-38
2024/02/16 01:49:17;;;;;;;6.37;3.50;;;;;;;;;;5076287;28;20066;-38
2024/02/16 01:51:44;;;;;;;8.77;3.20;;;;;;;;;;5074424;28;20326;-38
2024/02/16 01:54:10;;;;;;;9.13;2.90;;;;;;;;;;5075900;28;20354;-38
2024/02/16 01:56:35;;;;;;;5.32;2.88;;;;;;;;;;5075603;28;20120;-38
2024/02/16 01:59:00;;;;;;;6.57;2.83;;;;;;;;;;5074355;28;20050;-39
2024/02/16 02:01:26;;;;;;;6.65;2.97;;;;;;;;;;5075610;28;20032;-38
2024/02/16 02:03:51;;;;;;;5.93;2.87;;;;;;;;;;5076023;28;20021;-38
2024/02/16 02:06:16;;;;;;;4.97;2.63;;;;;;;;;;5075437;28;20286;-38
2024/02/16 02:08:41;;;;;;;5.95;2.75;;;;;;;;;;5075624;28;20019;-38
2024/02/16 02:11:06;;;;;;;5.93;2.70;;;;;;;;;;5075218;28;20138;-38
2024/02/16 02:13:32;;;;;;;7.90;3.00;;;;;;;;;;5075799;28;20259;-38
2024/02/16 02:15:58;;;;;;;5.50;2.80;;;;;;;;;;5075221;28;20764;-38
2024/02/16 02:18:23;;;;;;;7.22;2.80;;;;;;;;;;5075720;28;20035;-38
2024/02/16 02:20:48;;;;;;;8.03;2.90;;;;;;;;;;5075192;28;20095;-38
2024/02/16 02:23:14;;;;;;;6.35;2.83;;;;;;;;;;5074963;28;20278;-38
2024/02/16 02:25:40;;;;;;;5.50;2.97;;;;;;;;;;5075588;28;20059;-38
2024/02/16 02:28:05;;;;;;;4.78;2.97;;;;;;;;;;5074899;28;20263;-38
2024/02/16 02:30:30;;;;;;;4.93;2.90;;;;;;;;;;5075193;28;20024;-38
2024/02/16 02:32:56;;;;;;;4.80;2.78;;;;;;;;;;5075131;28;20020;-38
2024/02/16 02:35:21;;;;;;;8.13;3.00;;;;;;;;;;5075349;28;20064;-39
2024/02/16 02:37:46;;;;;;;7.43;3.00;;;;;;;;;;5075085;28;20652;-38
2024/02/16 02:40:12;;;;;;;10.25;2.97;;;;;;;;;;5075003;28;20265;-38
2024/02/16 02:42:37;;;;;;;6.35;2.90;;;;;;;;;;5074866;28;20020;-38
2024/02/16 02:45:02;;;;;;;5.17;2.87;;;;;;;;;;5074803;28;20047;-38
2024/02/16 02:47:27;;;;;;;6.97;2.92;;;;;;;;;;5074597;28;20274;-38
2024/02/16 02:49:53;;;;;;;9.73;3.23;;;;;;;;;;5075104;28;20021;-38
2024/02/16 02:52:18;;;;;;;6.00;2.70;;;;;;;;;;5074550;28;20752;-38
2024/02/16 02:54:43;;;;;;;5.55;2.80;;;;;;;;;;5074688;28;20239;-38
2024/02/16 02:57:09;;;;;;;5.50;2.93;;;;;;;;;;5074376;28;20349;-38
2024/02/16 02:59:34;;;;;;;6.50;3.00;;;;;;;;;;5074298;28;20289;-38
2024/02/16 03:01:59;;;;;;;5.80;3.00;;;;;;;;;;5074469;28;20354;-39
2024/02/16 03:04:25;;;;;;;6.45;3.20;;;;;;;;;;5074436;28;20070;-38
2024/02/16 03:06:53;;;;;;;5.18;3.00;;;;;;;;;;5074361;28;20036;-38
2024/02/16 03:09:18;;;;;;;5.40;3.13;;;;;;;;;;5074776;28;20023;-38
2024/02/16 03:11:43;;;;;;;5.15;2.70;;;;;;;;;;5074054;28;20025;-39
2024/02/16 03:14:09;;;;;;;6.57;2.80;;;;;;;;;;5073460;28;20081;-38
2024/02/16 03:16:34;;;;;;;5.55;2.78;;;;;;;;;;5073527;28;20263;-38
2024/02/16 03:18:59;;;;;;;4.13;2.60;;;;;;;;;;5073957;28;20024;-38
2024/02/16 03:21:25;;;;;;;5.82;2.80;;;;;;;;;;5073943;28;20012;-38
2024/02/16 03:23:50;;;;;;;5.05;2.90;;;;;;;;;;5073863;28;20024;-38
2024/02/16 03:26:15;;;;;;;4.90;2.73;;;;;;;;;;5074148;28;20013;-38
2024/02/16 03:28:44;;;;;;;7.63;3.00;;;;;;;;;;5074037;28;20255;-38
2024/02/16 03:31:14;;;;;;;5.10;3.03;;;;;;;;;;5074044;28;20013;-38
2024/02/16 03:33:39;;;;;;;6.50;3.05;;;;;;;;;;5073421;28;20108;-38
2024/02/16 03:36:05;;;;;;;6.43;2.90;;;;;;;;;;5073716;28;20060;-38
2024/02/16 03:38:30;;;;;;;11.45;3.22;;;;;;;;;;5073588;28;20442;-38
2024/02/16 03:40:56;;;;;;;7.40;3.17;;;;;;;;;;5074005;28;20070;-38
2024/02/16 03:43:21;;;;;;;6.75;3.20;;;;;;;;;;5073820;28;20377;-38
2024/02/16 03:45:46;;;;;;;5.17;2.80;;;;;;;;;;5073818;28;20345;-38
2024/02/16 03:48:11;;;;;;;7.60;3.43;;;;;;;;;;5073829;28;20247;-38
2024/02/16 03:50:36;;;;;;;6.23;3.10;;;;;;;;;;5072517;28;20283;-38
2024/02/16 03:53:01;;;;;;;5.83;3.10;;;;;;;;;;5073469;28;20258;-39
2024/02/16 03:55:27;;;;;;;5.30;2.80;;;;;;;;;;5073821;28;20293;-39
2024/02/16 03:57:52;;;;;;;5.40;2.97;;;;;;;;;;5074014;28;20058;-38
2024/02/16 04:00:17;;;;;;;8.70;3.17;;;;;;;;;;5073931;28;20307;-38
2024/02/16 04:02:42;;;;;;;5.22;2.70;;;;;;;;;;5073612;28;20283;-38
2024/02/16 04:05:08;;;;;;;6.10;2.90;;;;;;;;;;5073895;28;20016;-38
2024/02/16 04:07:33;;;;;;;4.05;2.78;;;;;;;;;;5073212;28;20041;-38
2024/02/16 04:10:00;;;;;;;6.78;2.95;;;;;;;;;;5073476;28;20135;-38
2024/02/16 04:12:25;;;;;;;5.18;3.05;;;;;;;;;;5073520;28;20048;-38
2024/02/16 04:14:50;;;;;;;10.97;3.17;;;;;;;;;;5073296;28;20020;-38
2024/02/16 04:17:15;;;;;;;7.17;3.20;;;;;;;;;;5071951;28;20282;-38
2024/02/16 04:19:41;;;;;;;7.90;2.90;;;;;;;;;;5073254;28;20338;-38
2024/02/16 04:22:06;;;;;;;5.32;2.75;;;;;;;;;;5073369;28;20270;-39
2024/02/16 04:24:31;;;;;;;9.20;3.20;;;;;;;;;;5073336;28;20079;-38
2024/02/16 04:26:56;;;;;;;6.97;3.10;;;;;;;;;;5073698;28;20028;-38
2024/02/16 04:29:21;;;;;;;7.30;2.70;;;;;;;;;;5073156;28;20267;-39
2024/02/16 04:31:47;;;;;;;6.20;3.10;;;;;;;;;;5073680;28;20261;-38
2024/02/16 04:34:12;;;;;;;5.90;3.08;;;;;;;;;;5073351;28;20263;-38
2024/02/16 04:36:37;;;;;;;7.05;3.13;;;;;;;;;;5073603;28;20024;-38
2024/02/16 04:39:03;;;;;;;7.00;3.20;;;;;;;;;;5073097;28;20023;-38
2024/02/16 04:41:28;;;;;;;5.80;3.10;;;;;;;;;;5073995;28;20309;-38
2024/02/16 04:43:53;;;;;;;5.55;3.20;;;;;;;;;;5069830;28;20031;-39
2024/02/16 04:46:18;;;;;;;5.80;2.73;;;;;;;;;;5074189;28;20457;-38
2024/02/16 04:48:44;;;;;;;6.38;3.10;;;;;;;;;;5074704;28;20272;-38
2024/02/16 04:51:10;;;;;;;8.20;3.30;;;;;;;;;;5074646;28;20024;-39
2024/02/16 04:53:35;;;;;;;5.88;2.85;;;;;;;;;;5074599;28;20316;-38
2024/02/16 04:56:02;;;;;;;7.97;3.40;;;;;;;;;;5074596;28;20048;-38
2024/02/16 04:58:27;;;;;;;5.90;3.13;;;;;;;;;;5075165;28;20323;-38
2024/02/16 05:00:52;;;;;;;6.73;2.77;;;;;;;;;;5076242;28;20025;-38
2024/02/16 05:03:17;;;;;;;6.00;3.03;;;;;;;;;;5074635;28;20286;-38
2024/02/16 05:05:43;;;;;;;6.50;3.00;;;;;;;;;;5074415;28;20063;-38
2024/02/16 05:08:09;;;;;;;5.25;3.10;;;;;;;;;;5074173;28;20299;-38
2024/02/16 05:10:34;;;;;;;8.83;3.90;;;;;;;;;;5074402;28;20032;-38
2024/02/16 05:12:59;;;;;;;6.53;3.20;;;;;;;;;;5074178;28;20733;-38
2024/02/16 05:15:24;;;;;;;7.93;3.03;;;;;;;;;;5074241;28;20266;-38
2024/02/16 05:17:50;;;;;;;9.52;3.20;;;;;;;;;;5076103;28;20017;-38
2024/02/16 05:20:16;;;;;;;5.43;3.15;;;;;;;;;;5076296;28;20075;-38
2024/02/16 05:22:45;;;;;;;5.53;3.30;;;;;;;;;;5076156;28;20042;-38
2024/02/16 05:25:14;;;;;;;6.63;3.40;;;;;;;;;;5076252;28;20091;-38
2024/02/16 05:27:40;;;;;;;6.18;3.30;;;;;;;;;;5076107;28;20027;-38
2024/02/16 05:30:07;;;;;;;6.53;3.10;;;;;;;;;;5076180;28;20016;-38
2024/02/16 05:32:34;;;;;;;5.07;3.28;;;;;;;;;;5075921;28;20074;-38
2024/02/16 05:34:59;;;;;;;7.25;3.28;;;;;;;;;;5076249;28;20031;-38
2024/02/16 05:37:25;;;;;;;7.63;3.33;;;;;;;;;;5076484;28;20025;-38
2024/02/16 05:40:08;;;;;;;7.00;3.38;;;;;;;;;;5077009;28;20292;-38
2024/02/16 05:42:33;;;;;;;6.10;3.20;;;;;;;;;;5076018;28;20454;-38
2024/02/16 05:44:58;;;;;;;8.43;3.25;;;;;;;;;;5076113;28;20040;-38
2024/02/16 05:47:23;;;;;;;8.10;3.50;;;;;;;;;;5076434;28;20025;-38
2024/02/16 05:49:49;;;;;;;6.57;3.30;;;;;;;;;;5075769;28;20734;-38
2024/02/16 05:52:20;;;;;;;14.05;3.75;;;;;;;;;;5075868;28;20263;-39
2024/02/16 05:54:47;;;;;;;8.45;3.00;;;;;;;;;;5075930;28;20016;-38
2024/02/16 05:57:12;;;;;;;6.85;3.35;;;;;;;;;;5074924;28;20016;-38
2024/02/16 05:59:37;;;;;;;8.93;3.45;;;;;;;;;;5075559;28;20016;-38
2024/02/16 06:02:03;;;;;;;8.30;3.30;;;;;;;;;;5076003;28;20414;-38
2024/02/16 06:04:28;;;;;;;4.90;3.00;;;;;;;;;;5075425;28;20070;-39
2024/02/16 06:06:54;;;;;;;7.90;3.40;;;;;;;;;;5075394;28;20426;-38
2024/02/16 06:09:19;;;;;;;7.97;3.85;;;;;;;;;;5075634;28;20308;-38
2024/02/16 06:11:44;;;;;;;8.25;3.60;;;;;;;;;;5075408;28;20379;-39
2024/02/16 06:14:09;;;;;;;6.57;3.42;;;;;;;;;;5075558;28;20020;-38
2024/02/16 06:16:35;;;;;;;9.60;3.73;;;;;;;;;;5075230;28;20025;-38
2024/02/16 06:19:00;;;;;;;6.17;3.10;;;;;;;;;;5075502;28;20266;-38
2024/02/16 06:21:25;;;;;;;6.47;3.47;;;;;;;;;;5075154;28;20286;-38
2024/02/16 06:23:50;;;;;;;8.90;3.70;;;;;;;;;;5075601;28;20386;-41
2024/02/16 06:26:16;;;;;;;9.95;3.35;;;;;;;;;;5075281;28;20255;-38
2024/02/16 06:28:41;;;;;;;12.50;3.80;;;;;;;;;;5076019;28;20017;-39
2024/02/16 06:31:06;;;;;;;7.17;3.77;;;;;;;;;;5075126;28;20460;-38
2024/02/16 06:33:31;;;;;;;9.53;3.60;;;;;;;;;;5075429;28;20265;-38
2024/02/16 06:35:56;;;;;;;7.68;3.80;;;;;;;;;;5075064;28;20613;-39
2024/02/16 06:38:21;;;;;;;6.90;3.37;;;;;;;;;;5074770;28;20031;-38
2024/02/16 06:40:47;;;;;;;5.95;3.60;;;;;;;;;;5075025;28;20258;-38
2024/02/16 06:43:12;;;;;;;5.37;3.43;;;;;;;;;;5074622;28;20458;-38
2024/02/16 06:45:37;;;;;;;7.63;3.60;;;;;;;;;;5074684;28;20258;-38
2024/02/16 06:48:02;;;;;;;5.83;3.50;;;;;;;;;;5074526;28;20271;-38
2024/02/16 06:50:27;;;;;;;5.60;3.30;;;;;;;;;;5074414;28;20259;-38
2024/02/16 06:52:55;;;;;;;8.37;3.37;;;;;;;;;;5074463;28;20029;-38
2024/02/16 06:55:20;;;;;;;12.32;3.75;;;;;;;;;;5074658;28;20277;-38
2024/02/16 06:57:45;;;;;;;7.82;3.65;;;;;;;;;;5074385;28;20020;-38
2024/02/16 07:00:11;;;;;;;6.65;3.78;;;;;;;;;;5074832;28;20023;-38
2024/02/16 07:02:36;;;;;;;5.85;3.25;;;;;;;;;;5074086;28;20466;-39
2024/02/16 07:05:01;;;;;;;7.25;3.42;;;;;;;;;;5074119;28;20029;-38
2024/02/16 07:07:27;;;;;;;9.10;3.78;;;;;;;;;;5073732;28;20053;-39
2024/02/16 07:09:52;;;;;;;8.10;3.63;;;;;;;;;;5073337;28;20096;-38
2024/02/16 07:12:17;;;;;;;8.90;3.75;;;;;;;;;;5074191;28;20266;-38
2024/02/16 07:14:43;;;;;;;9.30;3.90;;;;;;;;;;5074496;28;20013;-38
2024/02/16 07:17:09;;;;;;;7.63;3.63;;;;;;;;;;5074210;28;20024;-38
2024/02/16 07:19:34;;;;;;;8.90;4.05;;;;;;;;;;5074521;28;20085;-38
2024/02/16 07:22:00;;;;;;;8.75;3.78;;;;;;;;;;5074452;28;20009;-38
2024/02/16 07:24:25;;;;;;;7.33;3.70;;;;;;;;;;5073853;28;20147;-38
2024/02/16 07:26:50;;;;;;;6.80;3.63;;;;;;;;;;5074190;28;20255;-39
2024/02/16 07:29:16;;;;;;;6.13;3.53;;;;;;;;;;5073805;28;20019;-38
2024/02/16 07:31:41;;;;;;;7.72;3.70;;;;;;;;;;5073818;28;20347;-38
2024/02/16 07:34:07;;;;;;;11.55;3.90;;;;;;;;;;5073703;28;20016;-38
2024/02/16 07:36:34;;;;;;;9.10;3.83;;;;;;;;;;5074192;28;20104;-38
2024/02/16 07:38:59;;;;;;;8.43;3.88;;;;;;;;;;5073710;28;20024;-38
2024/02/16 07:41:24;;;;;;;9.50;4.20;;;;;;;;;;5073603;28;20027;-38
2024/02/16 07:43:50;;;;;;;7.17;3.87;;;;;;;;;;5073525;28;20279;-38
2024/02/16 07:46:15;;;;;;;7.53;3.63;;;;;;;;;;5073751;28;20263;-38
2024/02/16 07:48:40;;;;;;;9.75;3.90;;;;;;;;;;5074059;28;20012;-38
2024/02/16 07:51:05;;;;;;;11.80;3.83;;;;;;;;;;5073775;28;20475;-38
2024/02/16 07:53:31;;;;;;;7.90;3.85;;;;;;;;;;5073944;28;20255;-38
2024/02/16 07:55:56;;;;;;;8.00;4.00;;;;;;;;;;5073600;28;20031;-38
2024/02/16 07:58:21;;;;;;;6.82;3.90;;;;;;;;;;5073277;28;20050;-39
2024/02/16 08:00:46;;;;;;;10.80;3.90;;;;;;;;;;5073698;28;20060;-39
2024/02/16 08:03:11;;;;;;;9.48;4.15;;;;;;;;;;5072564;28;20290;-38
2024/02/16 08:05:37;;;;;;;12.65;3.88;;;;;;;;;;5073033;28;20028;-38
2024/02/16 08:08:03;;;;;;;10.48;4.03;;;;;;;;;;5073145;28;20045;-38
2024/02/16 08:10:28;;;;;;;7.25;4.05;;;;;;;;;;5073665;28;20060;-38
2024/02/16 08:12:53;;;;;;;6.07;3.53;;;;;;;;;;5073527;28;20038;-38
2024/02/16 08:15:25;;;;;;;8.63;4.10;;;;;;;;;;5074343;28;20020;-39
2024/02/16 08:17:50;;;;;;;8.75;4.25;;;;;;;;;;5073161;28;20040;-39
2024/02/16 08:20:16;;;;;;;7.88;4.22;;;;;;;;;;5073991;28;20059;-38
2024/02/16 08:22:41;;;;;;;8.98;4.13;;;;;;;;;;5075496;28;20450;-39
2024/02/16 08:25:06;;;;;;;8.77;4.22;;;;;;;;;;5076235;28;20024;-39
2024/02/16 08:27:32;;;;;;;12.82;4.40;;;;;;;;;;5076321;28;20024;-39
2024/02/16 08:29:57;;;;;;;9.27;4.10;;;;;;;;;;5076306;28;20024;-39
2024/02/16 08:32:22;;;;;;;7.90;4.20;;;;;;;;;;5075015;28;20016;-38
2024/02/16 08:34:50;;;;;;;10.97;4.37;;;;;;;;;;5075641;28;20259;-39
2024/02/16 08:37:16;;;;;;;11.20;4.28;;;;;;;;;;5074823;28;20304;-38
2024/02/16 08:39:41;;;;;;;13.48;4.38;;;;;;;;;;5076153;28;20223;-38
2024/02/16 08:42:08;;;;;;;9.73;4.38;;;;;;;;;;5076396;28;20017;-39
2024/02/16 08:44:34;;;;;;;10.18;4.10;;;;;;;;;;5076073;28;20023;-38
2024/02/16 08:46:59;;;;;;;9.07;4.30;;;;;;;;;;5076326;28;20475;-38
2024/02/16 08:49:24;;;;;;;7.53;4.18;;;;;;;;;;5076939;28;20356;-38
2024/02/16 08:51:49;;;;;;;7.07;4.23;;;;;;;;;;5076937;28;20349;-39
2024/02/16 08:54:17;;;;;;;10.67;4.40;;;;;;;;;;5077401;28;20294;-38
2024/02/16 08:56:42;;;;;;;9.20;4.22;;;;;;;;;;5077022;28;20259;-38
2024/02/16 08:59:07;;;;;;;14.07;4.50;;;;;;;;;;5076976;28;20485;-39
2024/02/16 09:01:37;;;;;;;12.82;4.45;;;;;;;;;;5076950;28;20251;-39
2024/02/16 09:04:02;;;;;;;10.77;4.70;;;;;;;;;;5076597;28;20029;-38
2024/02/16 09:06:28;;;;;;;9.73;5.07;;;;;;;;;;5076273;28;20043;-38
2024/02/16 09:08:53;;;;;;;8.15;4.80;;;;;;;;;;5076480;28;20026;-38
2024/02/16 09:11:19;;;;;;;12.65;4.60;;;;;;;;;;5076588;28;20023;-38
2024/02/16 09:13:44;;;;;;;9.57;4.30;;;;;;;;;;5076694;28;20013;-39
2024/02/16 09:16:09;;;;;;;7.40;4.70;;;;;;;;;;5076947;28;20043;-38
2024/02/16 09:18:34;;;;;;;11.80;4.65;;;;;;;;;;5076355;28;20255;-38
2024/02/16 09:20:59;;;;;;;18.02;4.93;;;;;;;;;;5076286;28;20024;-38
2024/02/16 09:23:25;;;;;;;8.70;4.80;;;;;;;;;;5076170;28;20413;-38
2024/02/16 09:25:51;;;;;;;13.23;4.80;;;;;;;;;;5076240;28;20471;-38
2024/02/16 09:28:16;;;;;;;8.80;4.65;;;;;;;;;;5076481;28;20451;-38
2024/02/16 09:30:41;;;;;;;10.25;4.53;;;;;;;;;;5076617;28;20029;-38
2024/02/16 09:33:10;;;;;;;8.90;5.18;;;;;;;;;;5075859;28;20029;-40
2024/02/16 09:35:35;;;;;;;9.75;5.00;;;;;;;;;;5076356;28;20032;-39
2024/02/16 09:38:00;;;;;;;10.27;5.10;;;;;;;;;;5076310;28;20021;-39
2024/02/16 09:40:26;;;;;;;9.40;4.40;;;;;;;;;;5075887;28;20112;-38
2024/02/16 09:42:51;;;;;;;11.48;4.97;;;;;;;;;;5075906;28;20283;-38
2024/02/16 09:45:17;;;;;;;8.88;4.90;;;;;;;;;;5076100;28;20017;-38
2024/02/16 09:47:46;;;;;;;16.75;5.10;;;;;;;;;;5076354;28;20070;-38
2024/02/16 09:50:12;;;;;;;14.18;4.78;;;;;;;;;;5075862;28;20021;-39
2024/02/16 09:52:37;;;;;;;9.77;4.95;;;;;;;;;;5075702;28;20025;-38
2024/02/16 09:55:03;;;;;;;8.73;4.85;;;;;;;;;;5075698;28;20426;-38
2024/02/16 09:57:28;;;;;;;10.02;4.72;;;;;;;;;;5075842;28;20032;-38
2024/02/16 09:59:53;;;;;;;10.07;5.10;;;;;;;;;;5076004;28;20024;-39
2024/02/16 10:02:18;;;;;;;10.97;5.30;;;;;;;;;;5075296;28;20016;-38
2024/02/16 10:04:44;;;;;;;10.77;5.43;;;;;;;;;;5075392;28;20722;-39
2024/02/16 10:07:09;;;;;;;11.02;5.28;;;;;;;;;;5075256;28;20123;-38
2024/02/16 10:09:34;;;;;;;15.15;6.07;;;;;;;;;;5075944;28;20021;-38
2024/02/16 10:12:00;;;;;;;13.40;5.80;;;;;;;;;;5075398;28;20020;-39
2024/02/16 10:14:25;;;;;;;10.07;5.72;;;;;;;;;;5075199;28;20293;-38
2024/02/16 10:17:02;;;;;;;12.05;5.60;;;;;;;;;;5075516;28;20027;-39
2024/02/16 10:19:28;;;;;;;15.20;6.50;;;;;;;;;;5075144;28;20020;-39
2024/02/16 10:21:53;;;;;;;16.25;6.68;;;;;;;;;;5075626;28;20031;-39
2024/02/16 10:24:21;;;;;;;18.37;6.80;;;;;;;;;;5074946;28;20439;-39
2024/02/16 10:26:46;;;;;;;18.85;7.47;;;;;;;;;;5075021;28;20263;-39
2024/02/16 10:29:17;;;;;;;17.67;7.50;;;;;;;;;;5074958;28;20028;-39
2024/02/16 10:31:42;;;;;;;17.17;7.47;;;;;;;;;;5075441;28;20016;-39
2024/02/16 10:34:09;;;;;;;21.10;7.60;;;;;;;;;;5073596;28;20016;-38
2024/02/16 10:36:38;;;;;;;17.70;7.95;;;;;;;;;;5075072;28;20609;-38
2024/02/16 10:39:11;;;;;;;19.05;8.18;;;;;;;;;;5075231;28;20022;-38
2024/02/16 10:41:36;;;;;;;;;;;;;;;;;;5075042;28;20481;-38
2024/02/16 10:44:03;;;;;;;18.85;7.88;;;;;;;;;;5074081;28;20359;-39
2024/02/16 10:46:28;;;;;;;18.25;8.50;;;;;;;;;;5071002;28;20063;-39
2024/02/16 10:48:53;;;;;;;21.13;8.97;;;;;;;;;;5072659;28;20013;-39
2024/02/16 10:51:24;;;;;;;21.90;9.25;;;;;;;;;;5073706;28;20274;-38
2024/02/16 10:53:51;;;;;;;22.17;9.00;;;;;;;;;;5073881;28;20024;-39
2024/02/16 10:56:16;;;;;;;21.17;9.05;;;;;;;;;;5073915;28;20028;-38
2024/02/16 10:58:41;;;;;;;25.07;9.23;;;;;;;;;;5074192;28;20078;-39
2024/02/16 11:01:11;;;;;;;18.30;8.82;;;;;;;;;;5074243;28;20263;-39
2024/02/16 11:03:37;;;;;;;18.88;8.35;;;;;;;;;;5074460;28;20066;-39
2024/02/16 11:06:11;;;;;;;24.45;8.57;;;;;;;;;;5074198;28;20040;-38
2024/02/16 11:08:37;;;;;;;18.15;7.85;;;;;;;;;;5074176;28;20032;-39
2024/02/16 11:11:03;;;;;;;18.92;7.40;;;;;;;;;;5073966;28;20019;-39
2024/02/16 11:13:31;;;;;;;22.45;8.05;;;;;;;;;;5074489;28;20024;-39
2024/02/16 11:15:58;;;;;;;17.55;7.03;;;;;;;;;;5074020;28;20456;-39
2024/02/16 11:18:24;;;;;;;17.83;6.82;;;;;;;;;;5074139;28;20020;-40
2024/02/16 11:20:49;;;;;;;17.45;7.13;;;;;;;;;;5074025;28;20464;-38
2024/02/16 11:23:14;;;;;;;16.67;7.40;;;;;;;;;;5073878;28;20123;-38
2024/02/16 11:25:40;;;;;;;17.25;6.93;;;;;;;;;;5073861;28;20254;-39
2024/02/16 11:28:05;;;;;;;18.17;8.00;;;;;;;;;;5073830;28;20051;-38
2024/02/16 11:30:35;;;;;;;16.25;7.47;;;;;;;;;;5074319;28;20456;-39
2024/02/16 11:33:00;;;;;;;18.48;7.55;;;;;;;;;;5073693;28;20016;-39
2024/02/16 11:35:26;;;;;;;18.20;7.50;;;;;;;;;;5073991;28;20028;-38
2024/02/16 11:37:51;;;;;;;20.65;7.63;;;;;;;;;;5074220;28;20024;-38
2024/02/16 11:40:16;;;;;;;18.30;7.60;;;;;;;;;;5073951;28;20017;-38
2024/02/16 11:42:43;;;;;;;16.47;6.60;;;;;;;;;;5073560;28;20274;-39
2024/02/16 11:45:10;;;;;;;17.73;6.65;;;;;;;;;;5073549;28;20250;-38
2024/02/16 11:47:35;;;;;;;15.52;7.05;;;;;;;;;;5073337;28;20027;-38
2024/02/16 11:50:00;;;;;;;14.77;6.47;;;;;;;;;;5073859;28;20099;-39
2024/02/16 11:52:25;;;;;;;12.18;5.80;;;;;;;;;;5073526;28;20095;-38
2024/02/16 11:54:50;;;;;;;12.20;5.20;;;;;;;;;;5072957;28;20074;-39
2024/02/16 11:57:15;;;;;;;10.90;5.77;;;;;;;;;;5073498;28;20255;-39
2024/02/16 11:59:41;;;;;;;12.95;5.60;;;;;;;;;;5073406;28;20257;-38
2024/02/16 12:02:06;;;;;;;11.23;5.80;;;;;;;;;;5073897;28;20052;-38
2024/02/16 12:04:31;;;;;;;9.83;5.17;;;;;;;;;;5073873;28;20020;-38
2024/02/16 12:07:01;;;;;;;9.53;5.00;;;;;;;;;;5073717;28;20531;-38
2024/02/16 12:09:26;;;;;;;8.23;5.13;;;;;;;;;;5073366;28;20251;-38
2024/02/16 12:11:55;;;;;;;8.05;4.82;;;;;;;;;;5073325;28;20460;-39
2024/02/16 12:14:23;;;;;;;9.27;4.90;;;;;;;;;;5073140;28;20103;-39
2024/02/16 12:16:49;;;;;;;8.52;4.70;;;;;;;;;;5073495;28;20543;-39
2024/02/16 12:19:15;;;;;;;7.32;4.90;;;;;;;;;;5073550;28;20060;-39
2024/02/16 12:21:40;;;;;;;9.73;5.20;;;;;;;;;;5073444;28;20107;-39
2024/02/16 12:24:05;;;;;;;7.00;4.40;;;;;;;;;;5073105;28;20020;-38
2024/02/16 12:26:31;;;;;;;6.70;4.22;;;;;;;;;;5073058;28;20254;-38
2024/02/16 12:28:56;;;;;;;10.38;4.75;;;;;;;;;;5073345;28;20025;-39
2024/02/16 12:31:21;;;;;;;7.67;4.93;;;;;;;;;;5073070;28;20023;-38
2024/02/16 12:33:46;;;;;;;8.65;5.03;;;;;;;;;;5073010;28;20025;-39
2024/02/16 12:36:12;;;;;;;9.60;4.80;;;;;;;;;;5073601;28;20077;-39
2024/02/16 12:38:37;;;;;;;9.18;5.05;;;;;;;;;;5072938;28;20078;-39
2024/02/16 12:41:02;;;;;;;8.67;4.77;;;;;;;;;;5073001;28;20374;-39
2024/02/16 12:43:28;;;;;;;9.38;4.80;;;;;;;;;;5072922;28;20374;-39
2024/02/16 12:45:53;;;;;;;10.57;4.60;;;;;;;;;;5073989;28;20028;-38
2024/02/16 12:48:18;;;;;;;9.80;4.93;;;;;;;;;;5072762;28;20015;-38
2024/02/16 12:50:43;;;;;;;6.77;4.43;;;;;;;;;;5073429;28;20263;-38
2024/02/16 12:53:09;;;;;;;5.83;4.20;;;;;;;;;;5073201;28;20262;-40
2024/02/16 12:55:35;;;;;;;6.07;3.90;;;;;;;;;;5071610;28;20366;-39
2024/02/16 12:58:01;;;;;;;7.20;4.20;;;;;;;;;;5072816;28;20024;-38
2024/02/16 13:00:26;;;;;;;6.67;3.90;;;;;;;;;;5072769;28;20027;-39
2024/02/16 13:02:51;;;;;;;6.57;3.90;;;;;;;;;;5072746;28;20760;-38
2024/02/16 13:05:16;;;;;;;5.40;3.60;;;;;;;;;;5072814;28;20016;-38
2024/02/16 13:07:41;;;;;;;6.55;3.75;;;;;;;;;;5076705;28;20036;-39
2024/02/16 13:10:07;;;;;;;7.07;3.67;;;;;;;;;;5076707;28;20016;-39
2024/02/16 13:12:32;;;;;;;5.20;3.20;;;;;;;;;;5076476;28;20387;-40
2024/02/16 13:14:58;;;;;;;7.80;3.40;;;;;;;;;;5076394;28;20020;-39
2024/02/16 13:17:23;;;;;;;5.63;3.20;;;;;;;;;;5076833;28;20012;-38
2024/02/16 13:19:48;;;;;;;4.75;2.92;;;;;;;;;;5076184;28;20350;-38
2024/02/16 13:22:13;;;;;;;6.57;3.20;;;;;;;;;;5076233;28;20016;-39
2024/02/16 13:24:39;;;;;;;6.75;3.72;;;;;;;;;;5076063;28;20021;-38
2024/02/16 13:27:05;;;;;;;8.13;3.33;;;;;;;;;;5076788;28;20032;-39
2024/02/16 13:29:30;;;;;;;4.97;2.90;;;;;;;;;;5076424;28;20334;-40
2024/02/16 13:31:55;;;;;;;9.73;3.30;;;;;;;;;;5076695;28;20063;-39
2024/02/16 13:34:21;;;;;;;8.23;3.33;;;;;;;;;;5076144;28;20051;-40
2024/02/16 13:36:46;;;;;;;7.63;3.30;;;;;;;;;;5076207;28;20376;-39
2024/02/16 13:39:14;;;;;;;8.50;3.50;;;;;;;;;;5075944;28;20028;-38
2024/02/16 13:41:39;;;;;;;8.10;3.60;;;;;;;;;;5076490;28;20796;-39
2024/02/16 13:44:04;;;;;;;5.87;3.27;;;;;;;;;;5075735;28;20052;-40
2024/02/16 13:46:29;;;;;;;6.45;3.60;;;;;;;;;;5075819;28;20254;-39
2024/02/16 13:48:56;;;;;;;9.53;4.20;;;;;;;;;;5075746;28;20020;-39
2024/02/16 13:51:21;;;;;;;9.50;4.45;;;;;;;;;;5076776;28;20495;-40
2024/02/16 13:53:46;;;;;;;5.47;3.80;;;;;;;;;;5075765;28;20100;-39
2024/02/16 13:56:11;;;;;;;11.55;4.40;;;;;;;;;;5075309;28;20426;-38
2024/02/16 13:58:37;;;;;;;10.60;4.30;;;;;;;;;;5073576;28;20091;-38
2024/02/16 14:01:03;;;;;;;7.93;4.15;;;;;;;;;;5073053;28;20296;-38
2024/02/16 14:03:29;;;;;;;7.57;4.05;;;;;;;;;;5073267;28;20024;-39
2024/02/16 14:05:54;;;;;;;7.55;4.50;;;;;;;;;;5073316;28;20035;-39
2024/02/16 14:08:19;;;;;;;7.45;4.20;;;;;;;;;;5072782;28;20041;-38
2024/02/16 14:10:44;;;;;;;10.93;4.78;;;;;;;;;;5073168;28;20013;-38
2024/02/16 14:13:09;;;;;;;8.73;5.10;;;;;;;;;;5073769;28;20073;-38
2024/02/16 14:15:35;;;;;;;9.67;4.90;;;;;;;;;;5073703;28;20021;-39
2024/02/16 14:18:00;;;;;;;8.52;4.55;;;;;;;;;;5073968;28;20073;-38
2024/02/16 14:20:25;;;;;;;7.70;4.72;;;;;;;;;;5075007;28;20024;-37
2024/02/16 14:22:50;;;;;;;11.63;6.07;;;;;;;;;;5074864;28;20146;-37
2024/02/16 14:25:16;;;;;;;7.15;4.38;;;;;;;;;;5075675;28;20040;-37
2024/02/16 14:27:41;;;;;;;8.73;4.60;;;;;;;;;;5075432;28;20099;-39
2024/02/16 14:30:07;;;;;;;9.63;4.78;;;;;;;;;;5075058;28;20091;-39
2024/02/16 14:32:33;;;;;;;7.03;4.30;;;;;;;;;;5076110;28;20021;-39